createdAt,value
2018-03-17T00:01:00.901Z,20.90
2018-03-17T00:03:31.122Z,23.93
2018-03-17T00:05:59.936Z,24.70
2018-03-17T00:08:28.791Z,21.70
2018-03-17T00:10:57.669Z,22.90
2018-03-17T00:13:28.435Z,24.03
2018-03-17T00:15:57.374Z,24.27
2018-03-17T00:18:26.223Z,27.10
2018-03-17T00:20:55.139Z,26.97
2018-03-17T00:23:24.004Z,25.27
2018-03-17T00:25:52.865Z,30.17
2018-03-17T00:28:22.105Z,22.83
2018-03-17T00:30:50.962Z,23.40
2018-03-17T00:33:19.827Z,23.80
2018-03-17T00:35:48.738Z,25.97
2018-03-17T00:38:17.645Z,25.93
2018-03-17T00:40:46.462Z,24.70
2018-03-17T00:43:15.364Z,24.23
2018-03-17T00:45:44.207Z,26.20
2018-03-17T00:48:13.063Z,24.73
2018-03-17T00:50:42.635Z,24.73
2018-03-17T00:53:11.491Z,24.57
2018-03-17T00:55:40.342Z,27.17
2018-03-17T00:58:09.239Z,26.50
2018-03-17T01:00:38.097Z,25.13
2018-03-17T01:03:06.952Z,27.87
2018-03-17T01:05:36.875Z,26.50
2018-03-17T01:08:05.843Z,28.13
2018-03-17T01:10:34.699Z,27.50
2018-03-17T01:13:04.453Z,27.63
2018-03-17T01:15:33.307Z,27.77
2018-03-17T01:18:02.398Z,27.57
2018-03-17T01:20:31.284Z,30.20
2018-03-17T01:23:00.161Z,27.80
2018-03-17T01:25:29.098Z,28.13
2018-03-17T01:27:57.994Z,29.30
2018-03-17T01:30:26.858Z,31.77
2018-03-17T01:32:55.754Z,28.07
2018-03-17T01:35:25.333Z,28.83
2018-03-17T01:37:54.703Z,32.20
2018-03-17T01:40:23.563Z,29.27
2018-03-17T01:42:52.490Z,33.67
2018-03-17T01:45:21.358Z,29.40
2018-03-17T01:47:51.122Z,30.87
2018-03-17T01:50:19.972Z,27.93
2018-03-17T01:52:49.514Z,30.30
2018-03-17T01:55:18.382Z,32.47
2018-03-17T01:57:48.221Z,28.57
2018-03-17T02:00:17.106Z,30.17
2018-03-17T02:02:46.067Z,30.10
2018-03-17T02:05:14.916Z,31.43
2018-03-17T02:07:45.330Z,31.50
2018-03-17T02:10:14.150Z,32.43
2018-03-17T02:12:45.775Z,32.27
2018-03-17T02:15:14.677Z,34.43
2018-03-17T02:17:43.522Z,33.13
2018-03-17T02:20:12.414Z,37.83
2018-03-17T02:22:41.318Z,37.33
2018-03-17T02:25:10.167Z,32.27
2018-03-17T02:27:39.074Z,36.07
2018-03-17T02:30:07.933Z,39.93
2018-03-17T02:32:36.793Z,38.20
2018-03-17T02:35:05.684Z,33.23
2018-03-17T02:37:34.534Z,35.23
2018-03-17T02:40:03.385Z,34.23
2018-03-17T02:42:32.286Z,35.13
2018-03-17T02:45:01.137Z,34.87
2018-03-17T02:47:29.992Z,30.47
2018-03-17T02:49:59.856Z,30.50
2018-03-17T02:52:28.745Z,29.53
2018-03-17T02:54:57.614Z,31.37
2018-03-17T02:57:26.468Z,32.63
2018-03-17T02:59:55.333Z,27.97
2018-03-17T03:02:24.367Z,30.57
2018-03-17T03:04:53.230Z,30.23
2018-03-17T03:07:22.078Z,29.03
2018-03-17T03:09:51.834Z,32.47
2018-03-17T03:12:20.687Z,29.50
2018-03-17T03:14:49.542Z,30.90
2018-03-17T03:17:18.441Z,28.13
2018-03-17T03:19:47.302Z,29.60
2018-03-17T03:22:16.282Z,30.33
2018-03-17T03:24:46.170Z,34.97
2018-03-17T03:27:15.023Z,30.30
2018-03-17T03:29:43.877Z,31.37
2018-03-17T03:32:12.751Z,31.43
2018-03-17T03:34:41.624Z,28.87
2018-03-17T03:37:10.735Z,31.40
2018-03-17T03:39:39.634Z,30.53
2018-03-17T03:42:08.498Z,30.93
2018-03-17T03:44:37.392Z,32.30
2018-03-17T03:47:06.239Z,31.93
2018-03-17T03:49:35.402Z,29.57
2018-03-17T03:52:04.246Z,32.07
2018-03-17T03:54:33.092Z,32.70
2018-03-17T03:57:01.968Z,31.67
2018-03-17T03:59:31.708Z,33.57
2018-03-17T04:02:00.639Z,32.53
2018-03-17T04:04:29.578Z,35.17
2018-03-17T04:06:58.423Z,34.33
2018-03-17T04:09:27.292Z,33.63
2018-03-17T04:11:56.240Z,33.10
2018-03-17T04:14:25.298Z,37.07
2018-03-17T04:16:54.138Z,34.97
2018-03-17T04:19:23.028Z,34.70
2018-03-17T04:21:52.104Z,34.83
2018-03-17T04:24:20.941Z,35.07
2018-03-17T04:26:49.798Z,33.50
2018-03-17T04:29:18.836Z,36.37
2018-03-17T04:31:47.720Z,36.97
2018-03-17T04:34:16.867Z,36.80
2018-03-17T04:36:45.729Z,35.00
2018-03-17T04:39:14.597Z,38.77
2018-03-17T04:41:44.471Z,38.93
2018-03-17T04:44:13.320Z,35.63
2018-03-17T04:46:42.187Z,35.87
2018-03-17T04:49:11.090Z,41.40
2018-03-17T04:51:40.082Z,38.80
2018-03-17T04:54:09.002Z,39.93
2018-03-17T04:56:37.974Z,42.27
2018-03-17T04:59:06.819Z,38.03
2018-03-17T05:01:35.642Z,37.47
2018-03-17T05:04:05.195Z,39.87
2018-03-17T05:06:34.052Z,40.00
2018-03-17T05:09:02.892Z,40.83
2018-03-17T05:11:31.827Z,45.67
2018-03-17T05:14:01.974Z,39.70
2018-03-17T05:16:30.822Z,38.53
2018-03-17T05:19:00.100Z,39.23
2018-03-17T05:21:28.953Z,39.87
2018-03-17T05:23:57.810Z,43.87
2018-03-17T05:26:26.764Z,43.10
2018-03-17T05:28:55.623Z,44.33
2018-03-17T05:31:24.478Z,40.73
2018-03-17T05:33:53.403Z,38.33
2018-03-17T05:36:22.289Z,41.20
2018-03-17T05:38:51.148Z,42.57
2018-03-17T05:41:21.411Z,40.60
2018-03-17T05:43:50.266Z,40.17
2018-03-17T05:46:19.161Z,42.87
2018-03-17T05:48:48.844Z,38.13
2018-03-17T05:51:17.757Z,40.20
2018-03-17T05:53:47.638Z,46.83
2018-03-17T05:56:16.499Z,43.90
2018-03-17T05:58:46.751Z,42.73
2018-03-17T06:01:15.636Z,40.83
2018-03-17T06:03:44.487Z,43.77
2018-03-17T06:06:13.379Z,39.20
2018-03-17T06:08:42.251Z,42.33
2018-03-17T06:11:11.118Z,43.73
2018-03-17T06:13:40.005Z,40.67
2018-03-17T06:16:09.623Z,44.27
2018-03-17T06:18:38.492Z,43.53
2018-03-17T06:21:07.350Z,42.70
2018-03-17T06:23:36.775Z,41.70
2018-03-17T06:26:05.636Z,41.00
2018-03-17T06:28:34.506Z,41.97
2018-03-17T06:31:03.594Z,40.53
2018-03-17T06:33:32.455Z,41.47
2018-03-17T06:36:01.313Z,42.83
2018-03-17T06:38:30.468Z,43.50
2018-03-17T06:40:59.859Z,41.67
2018-03-17T06:43:29.129Z,44.63
2018-03-17T06:45:58.286Z,43.03
2018-03-17T06:48:27.663Z,43.23
2018-03-17T06:50:56.959Z,39.30
2018-03-17T06:53:26.262Z,36.23
2018-03-17T06:55:55.563Z,42.37
2018-03-17T06:58:24.896Z,42.93
2018-03-17T07:00:54.081Z,38.20
2018-03-17T07:03:23.360Z,38.80
2018-03-17T07:05:52.688Z,40.10
2018-03-17T07:08:21.718Z,38.40
2018-03-17T07:10:50.834Z,39.17
2018-03-17T07:13:20.696Z,34.37
2018-03-17T07:15:50.071Z,35.93
2018-03-17T07:18:21.115Z,35.13
2018-03-17T07:20:50.399Z,35.63
2018-03-17T07:23:19.698Z,34.13
2018-03-17T07:25:49.014Z,33.20
2018-03-17T07:28:18.122Z,34.47
2018-03-17T07:30:47.206Z,39.17
2018-03-17T07:33:16.146Z,33.90
2018-03-17T07:35:45.254Z,35.33
2018-03-17T07:38:14.279Z,35.17
2018-03-17T07:40:43.182Z,33.03
2018-03-17T07:43:12.052Z,35.00
2018-03-17T07:45:41.030Z,34.57
2018-03-17T07:48:09.892Z,33.50
2018-03-17T07:50:38.778Z,36.23
2018-03-17T07:53:07.685Z,31.80
2018-03-17T07:55:36.587Z,32.87
2018-03-17T07:58:06.423Z,30.87
2018-03-17T08:00:35.303Z,36.53
2018-03-17T08:03:04.202Z,32.17
2018-03-17T08:05:33.055Z,33.73
2018-03-17T08:08:02.109Z,29.90
2018-03-17T08:10:31.011Z,32.80
2018-03-17T08:12:59.862Z,33.10
2018-03-17T08:15:28.889Z,30.63
2018-03-17T08:17:58.287Z,30.83
2018-03-17T08:20:27.756Z,31.70
2018-03-17T08:22:56.610Z,31.10
2018-03-17T08:25:25.486Z,29.60
2018-03-17T08:27:54.398Z,30.87
2018-03-17T08:30:23.303Z,29.90
2018-03-17T08:32:52.151Z,30.53
2018-03-17T08:35:21.015Z,28.70
2018-03-17T08:37:49.922Z,27.70
2018-03-17T08:40:18.783Z,27.60
2018-03-17T08:42:47.730Z,29.73
2018-03-17T08:45:16.614Z,28.87
2018-03-17T08:47:45.480Z,28.57
2018-03-17T08:50:14.351Z,28.37
2018-03-17T08:52:43.226Z,27.70
2018-03-17T08:55:12.760Z,28.13
2018-03-17T08:57:41.628Z,27.27
2018-03-17T09:00:10.466Z,27.23
2018-03-17T09:02:39.363Z,25.70
2018-03-17T09:05:08.247Z,26.20
2018-03-17T09:07:37.208Z,25.30
2018-03-17T09:10:06.060Z,26.67
2018-03-17T09:12:35.858Z,26.50
2018-03-17T09:15:04.719Z,28.67
2018-03-17T09:17:33.673Z,27.20
2018-03-17T09:20:02.706Z,25.30
2018-03-17T09:22:31.996Z,26.37
2018-03-17T09:25:00.931Z,26.87
2018-03-17T09:27:31.623Z,25.73
2018-03-17T09:30:00.496Z,29.80
2018-03-17T09:32:29.632Z,25.40
2018-03-17T09:34:58.488Z,27.20
2018-03-17T09:37:27.358Z,24.53
2018-03-17T09:39:56.562Z,26.23
2018-03-17T09:42:25.439Z,25.87
2018-03-17T09:44:54.347Z,23.93
2018-03-17T09:47:23.786Z,26.33
2018-03-17T09:49:52.650Z,26.83
2018-03-17T09:52:21.568Z,24.60
2018-03-17T09:54:50.423Z,24.87
2018-03-17T09:57:22.025Z,32.10
2018-03-17T09:59:50.924Z,24.53
2018-03-17T10:02:19.787Z,25.70
2018-03-17T10:04:48.681Z,26.20
2018-03-17T10:07:17.867Z,23.77
2018-03-17T10:09:46.722Z,23.30
2018-03-17T10:12:15.571Z,22.77
2018-03-17T10:14:46.814Z,23.03
2018-03-17T10:17:15.656Z,25.53
2018-03-17T10:19:44.514Z,23.13
2018-03-17T10:22:13.587Z,23.33
2018-03-17T10:24:43.311Z,21.30
2018-03-17T10:27:12.208Z,20.90
2018-03-17T10:29:41.284Z,22.33
2018-03-17T10:32:10.143Z,21.60
2018-03-17T10:34:39.006Z,21.67
2018-03-17T10:37:07.906Z,21.13
2018-03-17T10:39:36.751Z,21.50
2018-03-17T10:42:05.615Z,21.07
2018-03-17T10:44:34.731Z,19.70
2018-03-17T10:47:03.598Z,19.20
2018-03-17T10:49:32.452Z,19.37
2018-03-17T10:52:02.115Z,19.63
2018-03-17T10:54:31.663Z,20.47
2018-03-17T10:57:00.540Z,19.43
2018-03-17T10:59:29.420Z,19.17
2018-03-17T11:02:04.022Z,19.53
2018-03-17T11:04:33.133Z,20.03
2018-03-17T11:07:01.982Z,19.97
2018-03-17T11:09:30.834Z,21.30
2018-03-17T11:11:59.719Z,21.00
2018-03-17T11:14:28.574Z,18.43
2018-03-17T11:16:57.463Z,19.03
2018-03-17T11:19:26.339Z,18.47
2018-03-17T11:21:55.495Z,18.83
2018-03-17T11:24:24.429Z,18.17
2018-03-17T11:26:53.770Z,18.57
2018-03-17T11:29:22.639Z,16.83
2018-03-17T11:31:51.539Z,17.30
2018-03-17T11:34:20.397Z,17.27
2018-03-17T11:36:49.426Z,17.47
2018-03-17T11:39:18.460Z,17.80
2018-03-17T11:41:47.386Z,17.23
2018-03-17T11:44:16.267Z,16.90
2018-03-17T11:46:45.130Z,17.40
2018-03-17T11:49:14.061Z,17.33
2018-03-17T11:51:42.936Z,16.63
2018-03-17T11:54:11.785Z,17.50
2018-03-17T11:56:41.079Z,16.47
2018-03-17T11:59:12.515Z,16.57
2018-03-17T12:01:41.371Z,17.30
2018-03-17T12:04:10.243Z,18.20
2018-03-17T12:06:39.165Z,17.97
2018-03-17T12:09:08.032Z,18.70
2018-03-17T12:11:37.190Z,17.53
2018-03-17T12:14:06.048Z,16.23
2018-03-17T12:16:34.902Z,16.40
2018-03-17T12:19:03.795Z,17.87
2018-03-17T12:21:32.873Z,16.83
2018-03-17T12:24:01.774Z,16.70
2018-03-17T12:26:30.641Z,18.00
2018-03-17T12:29:00.248Z,16.10
2018-03-17T12:31:29.163Z,16.07
2018-03-17T12:33:58.035Z,15.93
2018-03-17T12:36:26.895Z,15.30
2018-03-17T12:38:56.107Z,16.23
2018-03-17T12:41:24.955Z,15.27
2018-03-17T12:43:53.823Z,15.87
2018-03-17T12:46:22.912Z,15.73
2018-03-17T12:48:51.788Z,14.87
2018-03-17T12:51:20.647Z,16.17
2018-03-17T12:53:50.413Z,15.47
2018-03-17T12:56:19.252Z,16.43
2018-03-17T12:58:48.107Z,17.50
2018-03-17T13:01:16.999Z,17.60
2018-03-17T13:03:45.905Z,15.37
2018-03-17T13:06:14.778Z,15.87
2018-03-17T13:08:43.626Z,16.83
2018-03-17T13:11:12.486Z,14.20
2018-03-17T13:13:42.455Z,15.20
2018-03-17T13:16:11.303Z,16.27
2018-03-17T13:18:40.167Z,15.63
2018-03-17T13:21:09.061Z,14.67
2018-03-17T13:23:37.916Z,14.00
2018-03-17T13:26:06.843Z,14.17
2018-03-17T13:28:35.712Z,13.90
2018-03-17T13:31:07.543Z,17.23
2018-03-17T13:33:36.742Z,14.77
2018-03-17T13:36:11.329Z,15.10
2018-03-17T13:38:41.480Z,13.57
2018-03-17T13:41:10.339Z,13.90
2018-03-17T13:43:39.199Z,13.30
2018-03-17T13:46:08.481Z,14.67
2018-03-17T13:48:37.331Z,14.03
2018-03-17T13:51:06.245Z,13.53
2018-03-17T13:53:35.103Z,12.70
2018-03-17T13:56:03.979Z,12.77
2018-03-17T13:58:33.863Z,15.33
2018-03-17T14:01:02.723Z,13.23
2018-03-17T14:03:31.834Z,15.07
2018-03-17T14:06:00.696Z,13.87
2018-03-17T14:08:29.572Z,13.67
2018-03-17T14:10:59.064Z,14.67
2018-03-17T14:13:27.959Z,14.40
2018-03-17T14:15:56.813Z,13.50
2018-03-17T14:18:25.713Z,14.27
2018-03-17T14:20:54.563Z,15.40
2018-03-17T14:23:23.437Z,14.20
2018-03-17T14:25:52.338Z,15.00
2018-03-17T14:28:21.216Z,13.00
2018-03-17T14:30:50.105Z,14.70
2018-03-17T14:33:20.290Z,12.97
2018-03-17T14:35:49.175Z,14.87
2018-03-17T14:38:18.116Z,13.07
2018-03-17T14:40:47.004Z,13.20
2018-03-17T14:43:15.863Z,14.10
2018-03-17T14:45:44.786Z,12.07
2018-03-17T14:48:13.721Z,11.77
2018-03-17T14:50:42.663Z,12.80
2018-03-17T14:53:11.520Z,12.63
2018-03-17T14:55:40.426Z,14.47
2018-03-17T14:58:09.290Z,14.23
2018-03-17T15:00:38.229Z,12.77
2018-03-17T15:03:07.156Z,11.83
2018-03-17T15:05:36.016Z,12.43
2018-03-17T15:08:05.269Z,13.70
2018-03-17T15:10:34.119Z,12.27
2018-03-17T15:13:03.004Z,19.77
2018-03-17T15:15:31.934Z,15.17
2018-03-17T15:18:00.799Z,13.83
2018-03-17T15:20:29.754Z,13.63
2018-03-17T15:22:58.676Z,13.70
2018-03-17T15:25:27.547Z,12.70
2018-03-17T15:27:56.418Z,12.30
2018-03-17T15:30:26.833Z,13.43
2018-03-17T15:32:55.682Z,12.60
2018-03-17T15:35:25.583Z,13.27
2018-03-17T15:37:54.475Z,13.00
2018-03-17T15:40:23.321Z,12.07
2018-03-17T15:42:52.211Z,12.40
2018-03-17T15:45:21.106Z,14.83
2018-03-17T15:47:50.923Z,12.73
2018-03-17T15:50:19.779Z,14.27
2018-03-17T15:52:49.436Z,12.87
2018-03-17T15:55:18.387Z,13.47
2018-03-17T15:57:47.314Z,12.50
2018-03-17T16:00:16.173Z,13.40
2018-03-17T16:02:45.091Z,14.43
2018-03-17T16:05:13.940Z,14.90
2018-03-17T16:07:42.802Z,12.37
2018-03-17T16:10:11.719Z,14.07
2018-03-17T16:12:44.063Z,12.60
2018-03-17T16:15:13.456Z,13.13
2018-03-17T16:17:42.312Z,13.30
2018-03-17T16:20:11.173Z,12.97
2018-03-17T16:22:40.442Z,13.60
2018-03-17T16:25:09.331Z,14.97
2018-03-17T16:27:38.164Z,14.23
2018-03-17T16:30:07.884Z,18.70
2018-03-17T16:32:36.763Z,12.57
2018-03-17T16:35:05.646Z,13.07
2018-03-17T16:37:35.367Z,13.77
2018-03-17T16:40:04.302Z,12.17
2018-03-17T16:42:33.165Z,12.80
2018-03-17T16:45:02.263Z,14.60
2018-03-17T16:47:31.122Z,14.90
2018-03-17T16:49:59.967Z,13.37
2018-03-17T16:52:28.862Z,15.40
2018-03-17T16:54:57.799Z,14.70
2018-03-17T16:57:26.982Z,13.33
2018-03-17T16:59:55.860Z,14.17
2018-03-17T17:02:24.739Z,14.07
2018-03-17T17:04:53.606Z,15.83
2018-03-17T17:07:22.483Z,12.87
2018-03-17T17:09:52.096Z,15.60
2018-03-17T17:12:20.986Z,13.03
2018-03-17T17:14:49.877Z,13.27
2018-03-17T17:17:18.827Z,14.30
2018-03-17T17:19:47.630Z,14.17
2018-03-17T17:22:16.508Z,15.23
2018-03-17T17:24:45.721Z,16.37
2018-03-17T17:27:14.604Z,14.30
2018-03-17T17:29:43.454Z,13.80
2018-03-17T17:32:12.360Z,13.67
2018-03-17T17:34:41.359Z,15.27
2018-03-17T17:37:10.325Z,15.00
2018-03-17T17:39:39.850Z,14.77
2018-03-17T17:42:08.717Z,14.47
2018-03-17T17:44:37.576Z,14.87
2018-03-17T17:47:07.458Z,14.53
2018-03-17T17:49:36.378Z,14.40
2018-03-17T17:52:05.234Z,15.87
2018-03-17T17:54:34.943Z,15.40
2018-03-17T17:57:03.784Z,16.20
2018-03-17T17:59:33.876Z,15.10
2018-03-17T18:02:02.748Z,17.73
2018-03-17T18:04:32.562Z,15.30
2018-03-17T18:07:01.431Z,16.57
2018-03-17T18:09:30.282Z,15.40
2018-03-17T18:11:59.706Z,15.30
2018-03-17T18:14:28.569Z,17.00
2018-03-17T18:16:57.427Z,16.23
2018-03-17T18:19:26.694Z,21.37
2018-03-17T18:21:55.708Z,15.43
2018-03-17T18:24:24.575Z,15.90
2018-03-17T18:26:53.471Z,15.50
2018-03-17T18:29:22.342Z,15.30
2018-03-17T18:31:51.276Z,17.53
2018-03-17T18:34:20.128Z,18.17
2018-03-17T18:36:48.973Z,15.43
2018-03-17T18:39:17.867Z,19.30
2018-03-17T18:41:47.045Z,15.90
2018-03-17T18:44:15.861Z,15.33
2018-03-17T18:46:44.717Z,16.00
2018-03-17T18:49:13.603Z,15.30
2018-03-17T18:51:42.535Z,14.33
2018-03-17T18:54:12.280Z,17.17
2018-03-17T18:56:41.229Z,16.77
2018-03-17T18:59:09.988Z,13.70
2018-03-17T19:01:39.168Z,15.93
2018-03-17T19:04:08.034Z,16.40
2018-03-17T19:06:36.883Z,16.90
2018-03-17T19:09:05.783Z,16.43
2018-03-17T19:11:34.718Z,14.53
2018-03-17T19:14:03.520Z,17.53
2018-03-17T19:16:32.717Z,16.60
2018-03-17T19:19:01.605Z,14.27
2018-03-17T19:21:30.543Z,14.17
2018-03-17T19:23:59.427Z,14.00
2018-03-17T19:26:28.292Z,15.03
2018-03-17T19:28:57.382Z,16.20
2018-03-17T19:31:26.281Z,15.47
2018-03-17T19:33:55.155Z,17.07
2018-03-17T19:36:24.079Z,14.73
2018-03-17T19:38:53.016Z,16.07
2018-03-17T19:41:21.941Z,15.77
2018-03-17T19:43:51.653Z,19.00
2018-03-17T19:46:20.518Z,14.97
2018-03-17T19:48:49.392Z,15.17
2018-03-17T19:51:19.155Z,14.37
2018-03-17T19:53:48.017Z,15.37
2018-03-17T19:56:16.894Z,15.23
2018-03-17T19:58:45.795Z,15.27
2018-03-17T20:01:14.665Z,13.90
2018-03-17T20:03:43.545Z,14.40
2018-03-17T20:06:12.460Z,13.53
2018-03-17T20:08:41.315Z,15.60
2018-03-17T20:11:10.183Z,17.47
2018-03-17T20:13:40.888Z,14.00
2018-03-17T20:16:09.788Z,16.20
2018-03-17T20:18:38.653Z,15.50
2018-03-17T20:21:07.564Z,14.53
2018-03-17T20:23:36.421Z,15.50
2018-03-17T20:26:05.274Z,14.27
2018-03-17T20:28:34.302Z,14.53
2018-03-17T20:31:03.168Z,14.03
2018-03-17T20:33:32.139Z,16.87
2018-03-17T20:36:01.006Z,15.03
2018-03-17T20:38:29.866Z,18.13
2018-03-17T20:40:58.964Z,13.83
2018-03-17T20:43:27.831Z,25.07
2018-03-17T20:45:57.822Z,15.17
2018-03-17T20:48:27.424Z,15.83
2018-03-17T20:50:56.280Z,14.60
2018-03-17T20:53:25.172Z,16.10
2018-03-17T20:55:54.079Z,13.80
2018-03-17T20:58:23.007Z,16.17
2018-03-17T21:00:51.993Z,14.10
2018-03-17T21:03:20.886Z,15.03
2018-03-17T21:05:49.772Z,15.70
2018-03-17T21:08:18.703Z,19.93
2018-03-17T21:10:47.623Z,17.30
2018-03-17T21:13:16.843Z,14.13
2018-03-17T21:15:45.711Z,14.60
2018-03-17T21:18:14.571Z,13.80
2018-03-17T21:20:43.727Z,13.90
2018-03-17T21:23:12.605Z,13.80
2018-03-17T21:25:41.449Z,15.17
2018-03-17T21:28:10.538Z,15.13
2018-03-17T21:30:39.402Z,14.00
2018-03-17T21:33:08.259Z,13.63
2018-03-17T21:35:37.374Z,14.23
2018-03-17T21:38:06.236Z,15.53
2018-03-17T21:40:35.108Z,14.27
2018-03-17T21:43:05.002Z,14.67
2018-03-17T21:45:33.980Z,15.93
2018-03-17T21:48:05.529Z,13.87
2018-03-17T21:50:34.384Z,13.90
2018-03-17T21:53:03.323Z,14.97
2018-03-17T21:55:32.219Z,13.53
2018-03-17T21:58:02.823Z,14.10
2018-03-17T22:00:31.943Z,15.03
2018-03-17T22:03:00.968Z,14.13
2018-03-17T22:05:30.201Z,16.77
2018-03-17T22:07:59.155Z,16.67
2018-03-17T22:10:28.428Z,16.13
2018-03-17T22:12:57.405Z,14.00
2018-03-17T22:15:26.971Z,14.73
2018-03-17T22:17:55.833Z,15.00
2018-03-17T22:20:24.720Z,17.57
2018-03-17T22:22:53.901Z,15.30
2018-03-17T22:25:22.755Z,16.63
2018-03-17T22:27:51.616Z,15.33
2018-03-17T22:30:20.528Z,16.53
2018-03-17T22:32:49.409Z,15.83
2018-03-17T22:35:18.272Z,14.83
2018-03-17T22:37:47.170Z,17.57
2018-03-17T22:40:16.047Z,22.13
2018-03-17T22:42:44.903Z,17.50
2018-03-17T22:45:13.831Z,18.10
2018-03-17T22:47:42.823Z,17.13
2018-03-17T22:50:12.328Z,15.57
2018-03-17T22:52:42.411Z,16.83
2018-03-17T22:55:11.433Z,18.10
2018-03-17T22:57:40.334Z,17.43
2018-03-17T23:00:09.224Z,15.03
2018-03-17T23:02:38.084Z,16.27
2018-03-17T23:05:06.951Z,14.93
2018-03-17T23:07:36.164Z,14.13
2018-03-17T23:10:05.028Z,13.73
2018-03-17T23:12:33.882Z,17.53
2018-03-17T23:15:02.822Z,15.33
2018-03-17T23:17:31.690Z,18.33
2018-03-17T23:20:00.595Z,17.53
2018-03-17T23:22:29.462Z,16.57
2018-03-17T23:24:58.313Z,15.60
2018-03-17T23:27:27.233Z,15.90
2018-03-17T23:29:56.096Z,15.50
2018-03-17T23:32:24.924Z,16.83
2018-03-17T23:34:53.920Z,17.97
2018-03-17T23:37:22.803Z,17.03
2018-03-17T23:39:51.726Z,18.10
2018-03-17T23:42:20.587Z,15.67
2018-03-17T23:44:49.453Z,19.27
2018-03-17T23:47:18.385Z,19.23
2018-03-17T23:49:47.231Z,17.57
2018-03-17T23:52:17.034Z,17.63
2018-03-17T23:54:45.918Z,17.43
2018-03-17T23:57:14.771Z,18.70
2018-03-17T23:59:43.691Z,18.70
